Time;durP1;ratioP1;P1;durP2;ratioP2;P2;SDS_P1;SDS_P2;PMS_P1;PMS_P2;Temp;Humidity;BMP_temperature;BMP_pressure;BME280_temperature;BME280_humidity;BME280_pressure;Samples;Min_cycle;Max_cycle;Signal;HPM_P1;HPM_P2
2022/10/24 00:01:09;;;;;;;4.63;1.20;;;18.50;99.90;;;;;;6118878;23;20429;-72
2022/10/24 00:03:37;;;;;;;3.70;1.40;;;18.50;99.90;;;;;;6114162;23;20486;-72
2022/10/24 00:06:06;;;;;;;2.87;1.53;;;18.50;99.90;;;;;;6124835;23;20465;-72
2022/10/24 00:08:33;;;;;;;2.80;1.50;;;18.50;99.90;;;;;;6118294;23;20444;-72
2022/10/24 00:11:00;;;;;;;5.20;1.83;;;18.50;99.90;;;;;;6122598;23;20474;-72
2022/10/24 00:13:28;;;;;;;3.33;1.53;;;18.50;99.90;;;;;;6115036;23;20429;-72
2022/10/24 00:15:55;;;;;;;3.43;1.30;;;18.50;99.90;;;;;;6127967;23;20434;-72
2022/10/24 00:18:24;;;;;;;3.20;1.80;;;18.50;99.90;;;;;;6132955;23;20464;-72
2022/10/24 00:20:51;;;;;;;4.70;1.57;;;18.50;99.90;;;;;;6110093;23;20456;-72
2022/10/24 00:23:18;;;;;;;4.53;1.57;;;18.40;99.90;;;;;;6113472;23;21002;-72
2022/10/24 00:25:46;;;;;;;3.80;1.57;;;18.40;99.90;;;;;;6126505;23;20434;-72
2022/10/24 00:28:13;;;;;;;4.23;1.60;;;18.30;99.90;;;;;;6118533;23;21000;-72
2022/10/24 00:30:39;;;;;;;3.97;1.60;;;18.30;99.90;;;;;;6113822;23;20434;-72
2022/10/24 00:33:07;;;;;;;4.77;1.57;;;18.20;99.90;;;;;;6119299;23;20521;-72
2022/10/24 00:35:35;;;;;;;3.47;1.47;;;18.20;99.90;;;;;;6147623;23;20499;-72
2022/10/24 00:38:02;;;;;;;3.70;1.47;;;18.10;99.90;;;;;;6117934;23;20911;-72
2022/10/24 00:40:30;;;;;;;3.80;1.70;;;18.10;99.90;;;;;;6103527;23;20901;-72
2022/10/24 00:42:57;;;;;;;5.07;1.77;;;18.00;99.90;;;;;;6110732;23;20453;-72
2022/10/24 00:45:45;;;;;;;3.60;1.77;;;18.00;99.90;;;;;;6117382;23;20512;-72
2022/10/24 00:48:17;;;;;;;4.27;1.50;;;18.00;99.90;;;;;;6128111;23;20449;-72
2022/10/24 00:50:48;;;;;;;3.27;1.43;;;17.90;99.90;;;;;;6121504;23;21160;-72
2022/10/24 00:53:17;;;;;;;4.63;1.70;;;17.90;99.90;;;;;;6112442;23;20520;-72
2022/10/24 00:55:47;;;;;;;2.20;1.27;;;17.90;99.90;;;;;;6125409;23;20867;-72
2022/10/24 00:58:15;;;;;;;4.00;1.60;;;17.90;99.90;;;;;;6116496;23;20437;-72
2022/10/24 01:00:43;;;;;;;3.07;1.27;;;17.90;99.90;;;;;;6114318;23;20589;-72
2022/10/24 01:03:11;;;;;;;2.30;1.53;;;17.90;99.90;;;;;;6119131;23;20533;-72
2022/10/24 01:05:52;;;;;;;3.83;1.60;;;18.00;99.90;;;;;;6135370;23;20464;-72
2022/10/24 01:08:28;;;;;;;2.23;1.30;;;18.00;99.90;;;;;;6118499;23;20808;-72
2022/10/24 01:11:05;;;;;;;2.27;1.50;;;18.00;99.90;;;;;;6100877;23;20788;-72
2022/10/24 01:13:38;;;;;;;2.03;1.37;;;17.90;99.90;;;;;;6113507;23;20498;-71
2022/10/24 01:16:12;;;;;;;5.80;1.87;;;17.90;99.90;;;;;;6105742;23;20445;-71
2022/10/24 01:18:47;;;;;;;4.40;1.53;;;17.90;99.90;;;;;;6119655;23;20441;-72
2022/10/24 01:21:23;;;;;;;4.60;1.73;;;17.90;99.90;;;;;;6112421;23;20787;-72
2022/10/24 01:24:22;;;;;;;3.80;1.57;;;17.80;99.90;;;;;;6116343;23;20509;-72
2022/10/24 01:27:09;;;;;;;3.90;1.80;;;17.80;99.90;;;;;;6122211;23;20440;-71
2022/10/24 01:29:46;;;;;;;3.73;1.70;;;17.80;99.90;;;;;;6116301;23;20440;-72
2022/10/24 01:32:22;;;;;;;4.60;2.10;;;17.70;99.90;;;;;;6119682;23;20799;-71
2022/10/24 01:34:59;;;;;;;2.30;1.40;;;17.70;99.90;;;;;;6129085;23;20436;-71
2022/10/24 01:37:32;;;;;;;5.53;1.33;;;17.60;99.90;;;;;;6111748;23;20484;-72
2022/10/24 01:40:04;;;;;;;4.30;1.43;;;17.60;99.90;;;;;;6119790;23;20438;-72
2022/10/24 01:42:33;;;;;;;3.80;1.40;;;17.70;99.90;;;;;;6118251;23;20444;-71
2022/10/24 01:45:04;;;;;;;6.50;1.70;;;17.70;99.90;;;;;;6123037;23;20432;-72
2022/10/24 01:47:38;;;;;;;4.50;1.60;;;17.70;99.90;;;;;;6116990;23;20767;-72
2022/10/24 01:50:10;;;;;;;5.33;1.87;;;17.70;99.90;;;;;;6119770;23;21006;-72
2022/10/24 01:52:41;;;;;;;4.80;1.70;;;17.70;99.90;;;;;;6115115;23;20441;-72
2022/10/24 01:55:10;;;;;;;4.33;1.97;;;17.60;99.90;;;;;;6113095;23;20446;-72
2022/10/24 01:57:37;;;;;;;5.60;1.90;;;17.60;99.90;;;;;;6117999;23;20455;-72
2022/10/24 02:00:10;;;;;;;6.73;1.87;;;17.60;99.90;;;;;;6118926;23;20437;-72
2022/10/24 02:02:40;;;;;;;6.43;1.90;;;17.60;99.90;;;;;;6117352;23;20520;-71
2022/10/24 02:05:11;;;;;;;3.57;2.10;;;17.50;99.90;;;;;;6147516;23;20432;-71
2022/10/24 02:07:41;;;;;;;3.93;1.67;;;17.50;99.90;;;;;;6125296;23;20437;-71
2022/10/24 02:10:12;;;;;;;5.13;1.90;;;17.50;99.90;;;;;;6125923;23;20489;-72
2022/10/24 02:12:45;;;;;;;4.07;1.60;;;17.50;99.90;;;;;;6118929;23;20429;-72
2022/10/24 02:15:19;;;;;;;7.13;2.00;;;17.50;99.90;;;;;;6112210;23;20472;-72
2022/10/24 02:17:47;;;;;;;4.77;2.00;;;17.50;99.90;;;;;;6116444;23;20624;-72
2022/10/24 02:20:14;;;;;;;3.37;1.83;;;17.50;99.90;;;;;;6111148;23;20946;-72
2022/10/24 02:22:48;;;;;;;5.87;2.57;;;17.50;99.90;;;;;;6133209;23;20433;-72
2022/10/24 02:25:21;;;;;;;5.80;2.13;;;17.40;99.90;;;;;;6103577;23;20449;-71
2022/10/24 02:27:52;;;;;;;3.57;2.00;;;17.40;99.90;;;;;;6122989;23;20429;-72
2022/10/24 02:30:24;;;;;;;3.30;1.97;;;17.40;99.90;;;;;;6111591;23;20438;-72
2022/10/24 02:32:54;;;;;;;8.70;2.63;;;17.30;99.90;;;;;;6113929;23;20445;-72
2022/10/24 02:35:25;;;;;;;3.63;1.93;;;17.30;99.90;;;;;;6093066;23;20466;-72
2022/10/24 02:37:57;;;;;;;5.63;2.50;;;17.20;99.90;;;;;;6116456;23;21061;-72
2022/10/24 02:40:24;;;;;;;3.77;2.10;;;17.10;99.90;;;;;;6120511;23;20639;-72
2022/10/24 02:42:55;;;;;;;6.83;2.60;;;17.10;99.90;;;;;;6127628;23;20465;-72
2022/10/24 02:45:25;;;;;;;3.70;2.10;;;17.00;99.90;;;;;;6117554;23;20441;-72
2022/10/24 02:47:56;;;;;;;4.23;2.47;;;17.00;99.90;;;;;;6118170;23;20903;-72
2022/10/24 02:50:24;;;;;;;4.70;2.10;;;16.90;99.90;;;;;;6118281;23;20469;-72
2022/10/24 02:52:51;;;;;;;3.70;1.93;;;16.90;99.90;;;;;;6132831;23;20443;-72
2022/10/24 02:55:19;;;;;;;4.00;2.20;;;16.80;99.90;;;;;;6108660;23;20520;-72
2022/10/24 02:57:46;;;;;;;6.00;2.17;;;16.80;99.90;;;;;;6114489;23;20466;-72
2022/10/24 03:00:14;;;;;;;4.40;1.90;;;16.90;99.90;;;;;;6124510;23;20807;-72
2022/10/24 03:02:43;;;;;;;5.30;2.10;;;16.80;99.90;;;;;;6119311;23;20454;-72
2022/10/24 03:05:10;;;;;;;4.70;1.90;;;16.80;99.90;;;;;;6118787;23;20493;-72
2022/10/24 03:07:37;;;;;;;10.20;2.50;;;16.80;99.90;;;;;;6120257;23;20452;-72
2022/10/24 03:10:05;;;;;;;7.60;2.30;;;16.90;99.90;;;;;;6119503;23;20528;-72
2022/10/24 03:12:32;;;;;;;5.20;2.20;;;16.90;99.90;;;;;;6130919;23;20436;-72
2022/10/24 03:14:59;;;;;;;5.70;2.70;;;16.90;99.90;;;;;;6123262;23;20479;-72
2022/10/24 03:17:26;;;;;;;4.83;2.53;;;16.90;99.90;;;;;;6116875;23;20903;-72
2022/10/24 03:19:55;;;;;;;6.57;2.27;;;16.90;99.90;;;;;;6117074;23;20895;-72
2022/10/24 03:22:22;;;;;;;3.97;2.40;;;16.90;99.90;;;;;;6128429;23;20486;-72
2022/10/24 03:24:49;;;;;;;4.40;2.37;;;16.90;99.90;;;;;;6118979;23;20465;-72
2022/10/24 03:27:16;;;;;;;6.60;2.20;;;16.90;99.90;;;;;;6104125;23;20907;-72
2022/10/24 03:29:43;;;;;;;4.57;2.30;;;16.90;99.90;;;;;;6110333;23;20476;-72
2022/10/24 03:32:12;;;;;;;7.10;2.47;;;16.90;99.90;;;;;;6115810;23;20466;-72
2022/10/24 03:34:39;;;;;;;4.37;2.03;;;16.80;99.90;;;;;;6112127;23;20505;-72
2022/10/24 03:37:08;;;;;;;5.60;2.40;;;16.90;99.90;;;;;;6120093;23;20437;-72
2022/10/24 03:39:35;;;;;;;5.20;2.53;;;16.80;99.90;;;;;;6120616;23;20468;-72
2022/10/24 03:42:02;;;;;;;4.80;2.07;;;16.90;99.90;;;;;;6104885;23;20437;-71
2022/10/24 03:44:29;;;;;;;4.50;2.47;;;16.90;99.90;;;;;;6126006;23;20465;-72
2022/10/24 03:46:57;;;;;;;6.80;2.30;;;17.00;99.90;;;;;;6120107;23;20458;-72
2022/10/24 03:49:23;;;;;;;4.40;2.40;;;17.10;99.90;;;;;;6120656;23;20763;-72
2022/10/24 03:51:51;;;;;;;5.30;2.80;;;17.20;99.90;;;;;;6107878;23;20512;-72
2022/10/24 03:54:19;;;;;;;5.40;2.40;;;17.20;99.90;;;;;;6127041;23;20441;-72
2022/10/24 03:56:48;;;;;;;6.17;2.60;;;17.30;99.90;;;;;;6113692;23;20430;-71
2022/10/24 03:59:15;;;;;;;6.53;2.70;;;17.30;99.90;;;;;;6105378;23;20504;-72
2022/10/24 04:01:42;;;;;;;5.03;2.10;;;17.20;99.90;;;;;;6110838;23;20446;-71
2022/10/24 04:04:09;;;;;;;4.90;3.10;;;17.20;99.90;;;;;;6126828;23;20469;-72
2022/10/24 04:06:36;;;;;;;7.63;2.47;;;17.10;99.90;;;;;;6106303;23;20550;-72
2022/10/24 04:09:04;;;;;;;4.77;2.30;;;17.10;99.90;;;;;;6133673;23;20497;-72
2022/10/24 04:11:32;;;;;;;5.57;2.37;;;17.10;99.90;;;;;;6125650;23;20508;-72
2022/10/24 04:14:00;;;;;;;6.63;2.30;;;17.10;99.90;;;;;;6110845;23;20460;-72
2022/10/24 04:16:28;;;;;;;7.60;2.77;;;17.10;99.90;;;;;;6112325;23;20504;-72
2022/10/24 04:18:55;;;;;;;5.87;2.80;;;17.10;99.90;;;;;;6135558;23;20442;-72
2022/10/24 04:21:22;;;;;;;5.57;2.70;;;17.10;99.90;;;;;;6118700;23;20803;-72
2022/10/24 04:23:50;;;;;;;6.23;2.67;;;17.20;99.90;;;;;;6116946;23;20544;-72
2022/10/24 04:26:17;;;;;;;6.67;2.90;;;17.10;99.90;;;;;;6122050;23;20492;-72
2022/10/24 04:28:46;;;;;;;7.63;3.30;;;17.10;99.90;;;;;;6110925;23;20512;-72
2022/10/24 04:31:14;;;;;;;11.87;3.10;;;17.00;99.90;;;;;;6114463;23;20445;-72
2022/10/24 04:33:41;;;;;;;6.03;2.80;;;17.00;99.90;;;;;;6118119;23;20440;-72
2022/10/24 04:36:08;;;;;;;7.53;2.80;;;16.90;99.90;;;;;;6119605;23;20429;-72
2022/10/24 04:38:36;;;;;;;6.20;3.00;;;16.90;99.90;;;;;;6119391;23;20479;-72
2022/10/24 04:41:03;;;;;;;6.87;3.30;;;16.80;99.90;;;;;;6122633;23;20450;-72
2022/10/24 04:43:30;;;;;;;7.53;2.83;;;16.80;99.90;;;;;;6127722;23;20926;-72
2022/10/24 04:45:59;;;;;;;7.13;2.53;;;16.70;99.90;;;;;;6119180;23;20449;-72
2022/10/24 04:48:26;;;;;;;5.27;2.60;;;16.70;99.90;;;;;;6116296;23;20515;-72
2022/10/24 04:50:53;;;;;;;8.10;3.43;;;16.60;99.90;;;;;;6119906;23;20433;-72
2022/10/24 04:53:20;;;;;;;9.27;2.70;;;16.60;99.90;;;;;;6121045;23;20517;-72
2022/10/24 04:55:47;;;;;;;6.67;2.77;;;16.60;99.90;;;;;;6126743;23;20466;-71
2022/10/24 04:58:14;;;;;;;4.43;2.87;;;16.60;99.90;;;;;;6115924;23;20472;-72
2022/10/24 05:00:45;;;;;;;9.57;3.60;;;16.50;99.90;;;;;;6117334;23;20989;-72
2022/10/24 05:03:14;;;;;;;6.03;3.10;;;16.50;99.90;;;;;;6131467;23;20531;-72
2022/10/24 05:05:41;;;;;;;8.80;3.30;;;16.50;99.90;;;;;;6120550;23;20982;-72
2022/10/24 05:08:09;;;;;;;7.50;3.30;;;16.50;99.90;;;;;;6129561;23;20510;-72
2022/10/24 05:10:37;;;;;;;5.70;2.90;;;16.80;99.90;;;;;;6118419;23;20449;-72
2022/10/24 05:13:06;;;;;;;6.77;3.10;;;16.70;99.90;;;;;;6126418;23;20534;-73
2022/10/24 05:15:33;;;;;;;7.20;2.93;;;16.50;99.90;;;;;;6119299;23;20422;-72
2022/10/24 05:18:01;;;;;;;5.70;2.70;;;16.60;99.90;;;;;;6131747;23;20445;-72
2022/10/24 05:20:30;;;;;;;6.97;3.10;;;16.60;99.90;;;;;;6116299;23;20582;-72
2022/10/24 05:22:58;;;;;;;6.10;2.53;;;16.60;99.90;;;;;;6111421;23;20456;-72
2022/10/24 05:25:25;;;;;;;6.00;2.47;;;16.70;99.90;;;;;;6113966;23;20450;-75
2022/10/24 05:27:52;;;;;;;4.93;2.50;;;16.80;99.90;;;;;;6119638;23;20432;-75
2022/10/24 05:30:20;;;;;;;8.03;3.00;;;16.90;99.90;;;;;;6115540;23;20433;-75
2022/10/24 05:32:47;;;;;;;4.40;2.40;;;17.00;99.90;;;;;;6104845;23;20512;-72
2022/10/24 05:35:15;;;;;;;11.93;2.70;;;17.30;99.90;;;;;;6133015;23;20500;-72
2022/10/24 05:37:46;;;;;;;4.27;2.50;;;17.10;99.90;;;;;;6111562;23;20433;-72
2022/10/24 05:40:13;;;;;;;6.47;3.20;;;17.20;99.90;;;;;;6106067;23;20433;-72
2022/10/24 05:42:40;;;;;;;6.50;2.40;;;17.30;99.90;;;;;;6121768;23;20583;-72
2022/10/24 05:45:09;;;;;;;6.10;2.63;;;17.40;99.90;;;;;;6121591;23;20468;-72
2022/10/24 05:47:37;;;;;;;7.30;2.90;;;17.40;99.90;;;;;;6121154;23;20909;-72
2022/10/24 05:50:05;;;;;;;6.60;2.57;;;17.30;99.90;;;;;;6134199;23;20438;-73
2022/10/24 05:52:35;;;;;;;8.03;2.93;;;17.20;99.90;;;;;;6118764;23;20519;-74
2022/10/24 05:55:04;;;;;;;9.83;3.60;;;17.00;99.90;;;;;;6130132;23;20435;-74
2022/10/24 05:57:32;;;;;;;7.60;3.50;;;16.50;99.90;;;;;;6114922;23;20926;-73
2022/10/24 05:59:59;;;;;;;7.47;2.90;;;16.20;99.90;;;;;;6120298;23;20529;-74
2022/10/24 06:02:26;;;;;;;6.70;3.60;;;15.90;99.90;;;;;;6118963;23;20436;-72
2022/10/24 06:04:54;;;;;;;6.67;3.00;;;15.80;99.90;;;;;;6113424;23;20511;-75
2022/10/24 06:07:22;;;;;;;4.90;2.57;;;15.70;99.90;;;;;;6099028;23;20488;-75
2022/10/24 06:09:49;;;;;;;5.20;2.90;;;15.70;99.90;;;;;;6119911;23;20525;-75
2022/10/24 06:12:18;;;;;;;5.80;3.13;;;15.70;99.90;;;;;;6112615;23;20451;-75
2022/10/24 06:14:45;;;;;;;7.10;2.93;;;15.70;99.90;;;;;;6112929;23;21002;-75
2022/10/24 06:17:12;;;;;;;7.17;2.77;;;15.70;99.90;;;;;;6114854;23;20461;-74
2022/10/24 06:19:40;;;;;;;8.30;2.83;;;15.70;99.90;;;;;;6128628;23;20473;-75
2022/10/24 06:22:08;;;;;;;7.70;3.17;;;15.70;99.90;;;;;;6111062;23;20459;-75
2022/10/24 06:24:36;;;;;;;7.27;3.47;;;15.80;99.90;;;;;;6103595;23;20521;-75
2022/10/24 06:27:04;;;;;;;5.90;2.97;;;15.80;99.90;;;;;;6097676;23;20430;-75
2022/10/24 06:29:32;;;;;;;7.27;3.33;;;15.80;99.90;;;;;;6099917;23;20443;-75
2022/10/24 06:32:00;;;;;;;5.47;2.90;;;15.80;99.90;;;;;;6112735;23;20429;-75
2022/10/24 06:34:27;;;;;;;7.57;2.73;;;15.80;99.90;;;;;;6102676;23;20434;-75
2022/10/24 06:36:54;;;;;;;6.30;2.80;;;15.80;99.90;;;;;;6110673;23;20433;-75
2022/10/24 06:39:21;;;;;;;7.00;3.20;;;15.80;99.90;;;;;;6118353;23;20553;-73
2022/10/24 06:41:49;;;;;;;8.10;2.60;;;15.80;99.90;;;;;;6121460;23;20441;-73
2022/10/24 06:44:16;;;;;;;7.60;2.80;;;15.70;99.90;;;;;;6111734;23;20452;-73
2022/10/24 06:46:44;;;;;;;5.70;3.20;;;15.70;99.90;;;;;;6127008;23;20435;-73
2022/10/24 06:49:13;;;;;;;6.07;3.00;;;15.80;99.90;;;;;;6112829;23;20443;-75
2022/10/24 06:51:40;;;;;;;5.03;2.63;;;15.80;99.90;;;;;;6121746;23;20430;-75
2022/10/24 06:54:07;;;;;;;6.70;2.87;;;15.80;99.90;;;;;;6109574;23;20433;-75
2022/10/24 06:56:36;;;;;;;4.93;2.50;;;15.80;99.90;;;;;;6100347;23;20559;-75
2022/10/24 06:59:07;;;;;;;5.97;3.10;;;15.80;99.90;;;;;;6113502;23;20477;-75
2022/10/24 07:01:35;;;;;;;6.13;3.10;;;15.80;99.90;;;;;;6121953;23;20448;-75
2022/10/24 07:04:04;;;;;;;5.37;2.90;;;15.90;99.90;;;;;;6123129;23;20471;-75
2022/10/24 07:06:32;;;;;;;6.03;2.67;;;15.90;99.90;;;;;;6107831;23;20457;-73
2022/10/24 07:09:01;;;;;;;6.03;2.80;;;15.90;99.90;;;;;;6128860;23;20441;-73
2022/10/24 07:11:28;;;;;;;6.13;2.73;;;16.00;99.90;;;;;;6102771;23;20528;-74
2022/10/24 07:13:57;;;;;;;4.77;2.83;;;16.00;99.90;;;;;;6107426;23;20516;-75
2022/10/24 07:16:25;;;;;;;8.93;2.80;;;16.00;99.90;;;;;;6106579;23;20457;-75
2022/10/24 07:18:52;;;;;;;5.10;3.00;;;15.80;99.90;;;;;;6097335;23;20468;-75
2022/10/24 07:21:23;;;;;;;6.93;3.23;;;15.70;99.90;;;;;;6084739;23;21806;-76
2022/10/24 07:23:51;;;;;;;5.13;2.90;;;15.60;99.90;;;;;;6094857;23;20442;-75
2022/10/24 07:26:19;;;;;;;7.83;3.33;;;15.50;99.90;;;;;;6109945;23;21319;-76
2022/10/24 07:28:52;;;;;;;5.83;3.27;;;15.40;99.90;;;;;;6097962;23;20430;-75
2022/10/24 07:31:20;;;;;;;7.20;3.13;;;15.40;99.90;;;;;;6095583;23;20520;-76
2022/10/24 07:33:47;;;;;;;8.97;3.70;;;15.40;99.90;;;;;;6094880;23;20480;-76
2022/10/24 07:36:21;;;;;;;7.00;3.03;;;15.30;99.90;;;;;;6103035;23;20438;-76
2022/10/24 07:38:49;;;;;;;4.40;3.07;;;15.30;99.90;;;;;;6095736;23;20436;-75
2022/10/24 07:41:17;;;;;;;7.07;3.53;;;15.30;99.90;;;;;;6095289;23;21056;-75
2022/10/24 07:43:44;;;;;;;6.27;3.40;;;15.40;99.90;;;;;;6095507;23;20442;-73
2022/10/24 07:46:14;;;;;;;6.80;3.03;;;15.30;99.90;;;;;;6089310;23;20549;-73
2022/10/24 07:48:41;;;;;;;6.03;3.00;;;15.30;99.90;;;;;;6094118;23;20433;-74
2022/10/24 07:51:09;;;;;;;6.73;3.60;;;15.30;99.90;;;;;;6096970;23;20425;-74
2022/10/24 07:53:39;;;;;;;6.70;3.70;;;15.30;99.90;;;;;;6097011;23;20442;-75
2022/10/24 07:56:09;;;;;;;7.23;3.50;;;15.30;99.90;;;;;;6103167;23;20536;-75
2022/10/24 07:58:37;;;;;;;6.60;3.60;;;15.20;99.90;;;;;;6112590;23;20463;-75
2022/10/24 08:01:04;;;;;;;5.20;3.50;;;15.30;99.90;;;;;;6109127;23;20429;-75
2022/10/24 08:03:32;;;;;;;5.30;3.33;;;15.20;99.90;;;;;;6118534;23;20432;-75
2022/10/24 08:06:00;;;;;;;4.43;3.07;;;15.30;99.90;;;;;;6111728;23;20471;-75
2022/10/24 08:08:27;;;;;;;6.20;3.57;;;15.30;99.90;;;;;;6116853;23;20513;-75
2022/10/24 08:11:12;;;;;;;7.10;3.70;;;15.40;99.90;;;;;;6108148;23;20449;-75
2022/10/24 08:13:39;;;;;;;8.03;3.50;;;15.40;99.90;;;;;;6098159;23;20895;-75
2022/10/24 08:16:09;;;;;;;7.27;3.40;;;15.40;99.90;;;;;;6099782;23;20483;-75
2022/10/24 08:18:36;;;;;;;7.90;3.70;;;15.40;99.90;;;;;;6093110;23;20429;-73
2022/10/24 08:21:06;;;;;;;6.60;3.50;;;15.50;99.90;;;;;;6092714;23;20990;-76
2022/10/24 08:23:34;;;;;;;5.33;3.43;;;15.50;99.90;;;;;;6095567;23;20754;-73
2022/10/24 08:26:04;;;;;;;7.80;2.90;;;15.50;99.90;;;;;;6089209;23;20535;-75
2022/10/24 08:28:34;;;;;;;7.43;4.00;;;15.50;99.90;;;;;;6088131;23;20442;-73
2022/10/24 08:31:03;;;;;;;5.43;3.03;;;15.60;99.90;;;;;;6093037;23;20563;-73
2022/10/24 08:33:30;;;;;;;8.77;4.00;;;15.60;99.90;;;;;;6095883;23;20515;-73
2022/10/24 08:36:00;;;;;;;6.97;3.60;;;15.70;99.90;;;;;;6096776;23;20527;-74
2022/10/24 08:38:28;;;;;;;7.83;3.57;;;15.70;99.90;;;;;;6094454;23;20980;-73
2022/10/24 08:40:56;;;;;;;5.77;3.30;;;15.70;99.90;;;;;;6098709;23;20453;-73
2022/10/24 08:43:24;;;;;;;5.80;2.80;;;15.70;99.90;;;;;;6113169;23;20436;-75
2022/10/24 08:46:05;;;;;;;9.10;3.40;;;15.80;99.90;;;;;;6118523;23;20575;-73
2022/10/24 08:48:36;;;;;;;5.80;2.93;;;15.80;99.90;;;;;;6120773;23;21522;-73
2022/10/24 08:51:12;;;;;;;7.23;3.10;;;15.90;99.90;;;;;;6112238;23;20965;-73
2022/10/24 08:53:40;;;;;;;6.30;3.00;;;15.90;99.90;;;;;;6115607;23;20609;-73
2022/10/24 08:56:11;;;;;;;5.50;2.73;;;15.90;99.90;;;;;;6123216;23;20438;-74
2022/10/24 08:58:43;;;;;;;3.97;2.70;;;15.90;99.90;;;;;;6128068;23;20445;-74
2022/10/24 09:01:19;;;;;;;5.00;2.37;;;15.90;99.90;;;;;;6109973;23;20435;-74
2022/10/24 09:03:50;;;;;;;4.50;2.40;;;16.00;99.90;;;;;;6121320;23;20437;-74
2022/10/24 09:06:20;;;;;;;3.10;2.00;;;16.00;99.90;;;;;;6102636;23;20806;-75
2022/10/24 09:08:51;;;;;;;4.47;2.40;;;15.90;99.90;;;;;;6107931;23;20439;-73
2022/10/24 09:11:26;;;;;;;4.83;2.30;;;15.90;99.90;;;;;;6105743;23;21217;-73
2022/10/24 09:13:54;;;;;;;4.67;2.40;;;15.90;99.90;;;;;;6114860;23;20467;-73
2022/10/24 09:16:26;;;;;;;5.80;2.70;;;15.90;99.90;;;;;;6118432;23;20853;-73
2022/10/24 09:18:56;;;;;;;5.60;2.13;;;15.90;99.90;;;;;;6115119;23;20482;-73
2022/10/24 09:21:24;;;;;;;5.17;2.53;;;15.90;99.90;;;;;;6099255;23;20769;-74
2022/10/24 09:23:51;;;;;;;3.63;2.30;;;15.90;99.90;;;;;;6121097;23;20433;-74
2022/10/24 09:26:24;;;;;;;3.70;2.63;;;15.90;99.90;;;;;;6102444;23;20472;-74
2022/10/24 09:28:54;;;;;;;3.90;2.17;;;15.90;99.90;;;;;;6107482;23;20559;-74
2022/10/24 09:31:25;;;;;;;5.03;2.70;;;16.00;99.90;;;;;;6100734;23;20443;-74
2022/10/24 09:33:55;;;;;;;6.00;2.97;;;15.70;99.90;;;;;;6104309;23;20508;-74
2022/10/24 09:36:24;;;;;;;6.07;2.23;;;16.00;99.90;;;;;;6104438;23;20433;-74
2022/10/24 09:38:51;;;;;;;3.90;2.30;;;15.90;99.90;;;;;;6100299;23;20516;-74
2022/10/24 09:41:22;;;;;;;3.10;2.03;;;16.00;99.90;;;;;;6105461;23;20486;-74
2022/10/24 09:43:53;;;;;;;8.90;2.50;;;15.90;99.90;;;;;;6115254;23;20441;-74
2022/10/24 09:46:26;;;;;;;8.07;2.67;;;16.00;99.90;;;;;;6095205;23;20504;-74
2022/10/24 09:48:55;;;;;;;6.60;2.93;;;16.00;99.90;;;;;;6106622;23;20455;-74
2022/10/24 09:51:31;;;;;;;5.87;2.60;;;16.00;99.90;;;;;;6108940;23;20520;-74
2022/10/24 09:54:22;;;;;;;6.53;2.63;;;16.00;99.90;;;;;;6108782;23;20487;-74
2022/10/24 09:56:55;;;;;;;4.53;2.70;;;16.00;99.90;;;;;;6102950;23;20434;-74
2022/10/24 09:59:40;;;;;;;4.50;2.40;;;16.00;99.90;;;;;;6106257;23;20434;-74
2022/10/24 10:02:26;;;;;;;3.73;2.23;;;16.00;99.90;;;;;;6111225;23;20456;-74
2022/10/24 10:05:19;;;;;;;5.33;2.43;;;16.00;99.90;;;;;;6104751;23;20568;-74
2022/10/24 10:07:49;;;;;;;4.60;2.40;;;16.00;99.90;;;;;;6101412;23;20445;-74
2022/10/24 10:10:29;;;;;;;4.07;2.60;;;16.00;99.90;;;;;;6107471;23;20461;-74
2022/10/24 10:13:02;;;;;;;4.80;2.87;;;16.00;99.90;;;;;;6105803;23;20525;-74
2022/10/24 10:15:34;;;;;;;4.07;2.37;;;16.00;99.90;;;;;;6106690;23;20517;-74
2022/10/24 10:18:05;;;;;;;5.83;2.53;;;16.10;99.90;;;;;;6113580;23;20934;-74
2022/10/24 10:20:37;;;;;;;4.80;2.70;;;16.10;99.90;;;;;;6116938;23;20934;-74
2022/10/24 10:23:24;;;;;;;4.90;2.50;;;16.10;99.90;;;;;;6118114;23;20615;-74
2022/10/24 10:26:03;;;;;;;4.03;2.50;;;16.10;99.90;;;;;;6097613;23;20467;-74
2022/10/24 10:28:35;;;;;;;6.37;3.27;;;16.10;99.90;;;;;;6120859;23;20439;-74
2022/10/24 10:31:04;;;;;;;4.60;2.60;;;16.20;99.90;;;;;;6131315;23;20436;-74
2022/10/24 10:33:41;;;;;;;7.73;3.30;;;16.20;99.90;;;;;;6097562;23;20488;-73
2022/10/24 10:36:15;;;;;;;5.37;3.20;;;16.20;99.90;;;;;;6118887;23;20453;-73
2022/10/24 10:38:56;;;;;;;5.73;2.70;;;16.20;99.90;;;;;;6101271;23;21109;-75
2022/10/24 10:41:41;;;;;;;4.90;3.00;;;16.20;99.90;;;;;;6103833;23;20978;-74
2022/10/24 10:44:28;;;;;;;4.00;2.80;;;16.20;99.90;;;;;;6113063;23;20525;-74
2022/10/24 10:47:08;;;;;;;5.17;2.53;;;16.30;99.90;;;;;;6111228;23;20906;-74
2022/10/24 10:49:39;;;;;;;4.00;2.37;;;16.40;99.90;;;;;;6111419;23;20434;-73
2022/10/24 10:52:09;;;;;;;4.10;2.10;;;16.40;99.90;;;;;;6109923;23;20461;-73
2022/10/24 10:55:08;;;;;;;4.37;2.37;;;16.50;99.90;;;;;;6126505;23;20998;-73
2022/10/24 10:57:43;;;;;;;4.03;2.00;;;16.70;99.90;;;;;;6100989;23;20509;-72
2022/10/24 11:00:25;;;;;;;3.83;1.87;;;16.70;99.90;;;;;;6096135;23;20517;-74
2022/10/24 11:03:25;;;;;;;3.90;1.90;;;16.80;99.90;;;;;;6105739;23;20457;-73
2022/10/24 11:06:14;;;;;;;2.47;1.80;;;16.90;99.90;;;;;;6099656;23;20473;-73
2022/10/24 11:08:58;;;;;;;4.50;2.27;;;16.90;99.90;;;;;;6134662;23;20434;-73
2022/10/24 11:11:29;;;;;;;4.10;1.87;;;16.90;99.90;;;;;;6130260;23;20835;-72
2022/10/24 11:14:00;;;;;;;5.77;1.67;;;17.00;99.90;;;;;;6118399;23;20780;-74
2022/10/24 11:16:30;;;;;;;4.17;1.70;;;16.90;99.90;;;;;;6117093;23;20449;-73
2022/10/24 11:19:05;;;;;;;2.97;1.70;;;16.90;99.90;;;;;;6109274;23;20485;-74
2022/10/24 11:21:35;;;;;;;7.23;1.90;;;16.90;99.90;;;;;;6127161;23;20462;-73
2022/10/24 11:24:06;;;;;;;6.57;2.50;;;17.00;99.90;;;;;;6109470;23;20469;-74
2022/10/24 11:26:40;;;;;;;3.73;1.50;;;16.90;99.90;;;;;;6112428;23;20473;-74
2022/10/24 11:29:16;;;;;;;4.63;1.50;;;17.00;99.90;;;;;;6128998;23;20533;-74
2022/10/24 11:31:48;;;;;;;4.73;1.60;;;17.00;99.90;;;;;;6111187;23;21000;-76
2022/10/24 11:34:22;;;;;;;3.40;1.57;;;17.00;99.90;;;;;;6112553;23;20429;-74
2022/10/24 11:36:56;;;;;;;4.53;2.13;;;17.00;99.90;;;;;;6114302;23;20500;-73
2022/10/24 11:39:29;;;;;;;3.23;1.67;;;17.00;99.90;;;;;;6117678;23;20440;-73
2022/10/24 11:42:01;;;;;;;7.30;2.40;;;17.00;99.90;;;;;;6115976;23;20430;-74
2022/10/24 11:44:45;;;;;;;2.33;1.80;;;17.00;99.90;;;;;;6111453;23;20452;-73
2022/10/24 11:47:39;;;;;;;3.37;1.60;;;17.00;99.90;;;;;;6119734;23;20701;-74
2022/10/24 11:50:14;;;;;;;2.53;1.50;;;17.10;99.90;;;;;;6114595;23;20457;-73
2022/10/24 11:52:49;;;;;;;1.57;1.23;;;17.10;99.90;;;;;;6113584;23;20499;-73
2022/10/24 11:55:20;;;;;;;4.13;1.83;;;17.10;99.90;;;;;;6115722;23;20429;-73
2022/10/24 11:57:51;;;;;;;1.97;1.47;;;17.10;99.90;;;;;;6127866;23;20434;-73
2022/10/24 12:00:24;;;;;;;1.50;1.40;;;17.10;99.90;;;;;;6121307;23;20441;-73
2022/10/24 12:03:20;;;;;;;2.53;1.70;;;17.10;99.90;;;;;;6117516;23;20429;-73
2022/10/24 12:06:07;;;;;;;3.20;1.83;;;17.20;99.90;;;;;;6122040;23;20512;-73
2022/10/24 12:08:52;;;;;;;4.30;1.57;;;17.20;99.90;;;;;;6108673;23;20445;-73
2022/10/24 12:11:53;;;;;;;4.53;1.70;;;17.20;99.90;;;;;;6102969;23;20469;-73
2022/10/24 12:14:48;;;;;;;3.97;1.93;;;17.20;99.90;;;;;;6015923;23;20437;-73
2022/10/24 12:17:45;;;;;;;4.03;1.50;;;17.20;99.90;;;;;;6131028;23;20702;-71
2022/10/24 12:20:18;;;;;;;3.80;1.90;;;17.30;99.90;;;;;;6102151;23;20915;-73
2022/10/24 12:22:45;;;;;;;4.73;2.47;;;17.30;99.90;;;;;;6114256;23;20437;-72
2022/10/24 12:25:29;;;;;;;3.10;1.80;;;17.30;99.90;;;;;;6114869;23;20462;-73
2022/10/24 12:27:58;;;;;;;2.57;1.73;;;17.30;99.90;;;;;;6117782;23;20456;-73
2022/10/24 12:30:28;;;;;;;3.23;2.23;;;17.30;99.90;;;;;;6104158;23;20521;-73
2022/10/24 12:32:57;;;;;;;3.60;1.93;;;17.30;99.90;;;;;;6119567;23;20424;-73
2022/10/24 12:35:51;;;;;;;4.23;2.07;;;17.30;99.90;;;;;;6109753;23;20453;-73
2022/10/24 12:39:07;;;;;;;2.10;1.67;;;17.30;99.90;;;;;;6091375;23;20433;-73
2022/10/24 12:41:43;;;;;;;2.10;1.60;;;17.30;99.90;;;;;;6101177;23;20437;-73
2022/10/24 12:44:38;;;;;;;3.70;1.93;;;17.30;99.90;;;;;;6115264;23;20425;-72
2022/10/24 12:47:34;;;;;;;3.60;1.67;;;17.30;99.90;;;;;;6112848;23;20493;-73
2022/10/24 12:50:50;;;;;;;3.00;2.20;;;17.40;99.90;;;;;;6040943;23;21955;-73
2022/10/24 12:53:30;;;;;;;3.50;1.70;;;17.40;99.90;;;;;;5989406;23;20464;-73
2022/10/24 12:56:16;;;;;;;2.37;1.80;;;17.40;99.90;;;;;;6096344;23;20449;-72
2022/10/24 12:58:56;;;;;;;4.60;1.60;;;17.60;99.90;;;;;;6115878;23;20465;-73
2022/10/24 13:01:31;;;;;;;2.80;1.80;;;17.50;99.90;;;;;;6120471;23;20440;-72
2022/10/24 13:04:27;;;;;;;2.43;1.60;;;17.60;99.90;;;;;;6100623;23;20429;-72
2022/10/24 13:07:28;;;;;;;4.83;1.90;;;17.70;99.90;;;;;;6053511;23;20596;-73
2022/10/24 13:10:11;;;;;;;3.80;2.30;;;17.70;99.90;;;;;;6108217;23;20438;-73